Terminal Aerodrome Forecast
Issued by NWS

Home | Current Version | Previous Version | Text Only | Print | Product List | Glossary On
Versions: 1 2 3 4 5 6 7 8 9 10 11 12 13 14 15 16 17 18 19 20
000
FTUS42 KMLB 071215 AAA
TAFSUA
TAF AMD
KSUA 071215Z 0712/0812 VRB04KT P6SM VCTS SCT020CB SCT060
     FM071600 10009KT P6SM SCT025 SCT250
      TEMPO 0717/0719 3SM TSRA BKN025CB
     FM080000 13004KT P6SM BKN250=

USA.gov is the U.S. government's official web portal to all federal, state and local government web resources and services.